Time;durP1;ratioP1;P1;durP2;ratioP2;P2;SDS_P1;SDS_P2;PMS_P1;PMS_P2;Temp;Humidity;BMP_temperature;BMP_pressure;BME280_temperature;BME280_humidity;BME280_pressure;Samples;Min_cycle;Max_cycle;Signal;HPM_P1;HPM_P2
2022/11/04 00:01:56;;;;;;;1.27;0.82;;;10.20;99.90;;;;;;5036770;28;20589;-81
2022/11/04 00:04:24;;;;;;;0.85;0.70;;;10.30;99.90;;;;;;5037225;28;20210;-83
2022/11/04 00:06:51;;;;;;;2.05;1.00;;;10.30;99.90;;;;;;5036935;28;20265;-82
2022/11/04 00:09:22;;;;;;;1.23;1.02;;;10.30;99.90;;;;;;5036616;28;20253;-83
2022/11/04 00:14:33;;;;;;;1.55;1.45;;;10.30;99.90;;;;;;5035926;28;20569;-84
2022/11/04 00:17:18;;;;;;;1.25;0.80;;;10.30;99.90;;;;;;5036175;28;20274;-84
2022/11/04 00:33:49;;;;;;;1.75;1.20;;;10.30;99.90;;;;;;5056817;28;20220;-83
2022/11/04 00:36:15;;;;;;;1.33;1.23;;;10.30;99.90;;;;;;5055672;28;20209;-84
2022/11/04 00:38:41;;;;;;;1.35;1.25;;;10.30;99.90;;;;;;5056996;28;20192;-83
2022/11/04 00:41:24;;;;;;;2.00;1.30;;;10.30;99.90;;;;;;5053046;28;20182;-84
2022/11/04 00:44:00;;;;;;;1.73;1.55;;;10.30;99.90;;;;;;5020859;28;20267;-84
2022/11/04 00:46:27;;;;;;;2.03;1.30;;;10.40;99.90;;;;;;5036968;28;20261;-83
2022/11/04 00:48:53;;;;;;;1.45;1.27;;;10.40;99.90;;;;;;5035265;28;20186;-83
2022/11/04 00:51:20;;;;;;;1.57;1.47;;;10.40;99.90;;;;;;5035429;28;20187;-83
2022/11/04 00:53:46;;;;;;;1.90;1.60;;;10.40;99.90;;;;;;5035701;28;20658;-84
2022/11/04 00:56:11;;;;;;;2.17;1.30;;;10.40;99.90;;;;;;5036095;28;20201;-84
2022/11/04 00:58:37;;;;;;;1.70;1.50;;;10.40;99.90;;;;;;5035284;28;20182;-83
2022/11/04 01:01:11;;;;;;;1.60;1.40;;;10.50;99.90;;;;;;5036947;28;20745;-84
2022/11/04 01:03:37;;;;;;;2.83;1.43;;;10.50;99.90;;;;;;5035204;28;20205;-84
2022/11/04 01:06:03;;;;;;;3.08;1.90;;;10.40;99.90;;;;;;5035416;28;20436;-85
2022/11/04 01:08:29;;;;;;;3.22;1.33;;;10.40;99.90;;;;;;5002649;28;20202;-85
2022/11/04 01:10:54;;;;;;;4.10;1.50;;;10.30;99.90;;;;;;5018387;28;20201;-84
2022/11/04 01:13:20;;;;;;;1.80;1.40;;;10.30;99.90;;;;;;5035401;28;20243;-84
2022/11/04 01:15:45;;;;;;;2.30;1.30;;;10.20;99.90;;;;;;5035885;28;20194;-84
2022/11/04 01:18:11;;;;;;;1.10;1.00;;;10.20;99.90;;;;;;5034723;28;20178;-84
2022/11/04 01:20:37;;;;;;;2.80;1.00;;;10.10;99.90;;;;;;5036237;28;20228;-83
2022/11/04 01:23:02;;;;;;;1.93;1.30;;;10.00;99.90;;;;;;5021351;28;20523;-85
2022/11/04 01:25:28;;;;;;;3.40;1.20;;;10.00;99.90;;;;;;5038917;28;20189;-83
2022/11/04 01:27:54;;;;;;;3.33;1.17;;;9.90;99.90;;;;;;5036519;28;20194;-83
2022/11/04 01:30:20;;;;;;;1.10;1.00;;;9.80;99.90;;;;;;5019069;28;20198;-83
2022/11/04 01:32:46;;;;;;;2.00;1.20;;;9.80;99.90;;;;;;5018384;28;20202;-83
2022/11/04 01:35:11;;;;;;;3.60;1.10;;;9.70;99.90;;;;;;5034816;28;20396;-83
2022/11/04 01:37:37;;;;;;;1.93;1.10;;;9.70;99.90;;;;;;5035864;28;20260;-83
2022/11/04 01:40:03;;;;;;;2.77;0.90;;;9.70;99.90;;;;;;5018405;28;20313;-84
2022/11/04 01:42:29;;;;;;;2.40;1.10;;;9.70;99.90;;;;;;5051168;28;20228;-84
2022/11/04 01:44:59;;;;;;;1.83;1.20;;;9.60;99.90;;;;;;5031921;28;20307;-83
2022/11/04 01:47:35;;;;;;;2.55;1.20;;;9.60;99.90;;;;;;5036050;28;20401;-84
2022/11/04 01:50:10;;;;;;;2.92;0.90;;;9.60;99.90;;;;;;5034951;28;20264;-84
2022/11/04 01:52:38;;;;;;;2.53;1.08;;;9.50;99.90;;;;;;5034313;28;20178;-83
2022/11/04 01:55:10;;;;;;;3.63;0.80;;;9.40;99.90;;;;;;5035824;28;20182;-84
2022/11/04 01:57:41;;;;;;;1.63;0.93;;;9.40;99.90;;;;;;5035291;28;20575;-84
2022/11/04 02:00:08;;;;;;;2.75;0.93;;;9.40;99.90;;;;;;5034056;28;20196;-84
2022/11/04 02:02:39;;;;;;;4.20;1.10;;;9.30;99.90;;;;;;5035715;28;20595;-84
2022/11/04 02:05:05;;;;;;;3.30;1.00;;;9.20;99.90;;;;;;5035355;28;20226;-85
2022/11/04 02:07:31;;;;;;;3.40;1.20;;;9.10;99.90;;;;;;5017591;28;20201;-84
2022/11/04 02:09:57;;;;;;;2.35;1.00;;;9.10;99.90;;;;;;5034878;28;20413;-84
2022/11/04 02:15:07;;;;;;;5.50;1.10;;;9.00;99.90;;;;;;5034757;28;20232;-85
2022/11/04 02:17:59;;;;;;;2.28;1.10;;;8.90;99.90;;;;;;5049885;28;20630;-84
2022/11/04 02:20:52;;;;;;;2.60;1.08;;;8.80;99.90;;;;;;5035032;28;20232;-84
2022/11/04 02:23:36;;;;;;;2.25;1.50;;;8.80;99.90;;;;;;5035257;28;20583;-84
2022/11/04 02:26:32;;;;;;;1.98;1.02;;;8.70;99.90;;;;;;5034910;28;20261;-84
2022/11/04 02:29:19;;;;;;;3.83;1.00;;;8.60;99.90;;;;;;5051923;28;20177;-84
2022/11/04 02:32:10;;;;;;;3.08;1.20;;;8.60;99.90;;;;;;5053091;28;20625;-84
2022/11/04 02:34:49;;;;;;;4.05;0.98;;;8.50;99.90;;;;;;5054755;28;20174;-83
2022/11/04 02:37:29;;;;;;;8.10;1.10;;;8.40;99.90;;;;;;5053655;28;20173;-84
2022/11/04 02:40:05;;;;;;;3.10;1.10;;;8.40;99.90;;;;;;5053336;28;20169;-84
2022/11/04 02:42:54;;;;;;;3.38;1.45;;;8.30;99.90;;;;;;5039836;28;20190;-83
2022/11/04 02:45:54;;;;;;;2.40;1.33;;;8.20;99.90;;;;;;5034299;28;20693;-83
2022/11/04 02:48:34;;;;;;;3.92;1.17;;;8.20;99.90;;;;;;5019521;28;20194;-83
2022/11/04 02:51:08;;;;;;;3.10;1.20;;;8.10;99.90;;;;;;5034270;28;20181;-83
2022/11/04 02:53:46;;;;;;;6.15;1.40;;;8.00;99.90;;;;;;5032544;28;20272;-85
2022/11/04 02:56:13;;;;;;;6.32;1.30;;;8.00;99.90;;;;;;5033117;28;20261;-85
2022/11/04 02:58:55;;;;;;;4.78;1.20;;;7.90;99.90;;;;;;5035225;28;20182;-84
2022/11/04 03:01:23;;;;;;;2.75;0.98;;;7.90;99.90;;;;;;5034098;28;20647;-85
2022/11/04 03:03:56;;;;;;;5.13;1.30;;;7.90;99.90;;;;;;5033929;28;20199;-84
2022/11/04 03:06:24;;;;;;;5.10;1.45;;;8.00;99.90;;;;;;5033356;28;20540;-85
2022/11/04 03:08:52;;;;;;;7.78;1.25;;;8.00;99.90;;;;;;5032433;28;20571;-84
2022/11/04 03:11:22;;;;;;;3.22;1.25;;;7.90;99.90;;;;;;5034387;28;20221;-84
2022/11/04 03:13:58;;;;;;;1.00;0.82;;;7.90;99.90;;;;;;5033843;28;20266;-84
2022/11/04 03:16:35;;;;;;;4.13;1.15;;;7.90;99.90;;;;;;5054427;28;20249;-84
2022/11/04 03:19:25;;;;;;;7.05;1.80;;;7.80;99.90;;;;;;5052547;28;20185;-83
2022/11/04 03:22:07;;;;;;;5.70;1.30;;;7.80;99.90;;;;;;5053944;28;20248;-84
2022/11/04 03:24:32;;;;;;;3.25;1.17;;;7.80;99.90;;;;;;5054235;28;20205;-84
2022/11/04 03:27:03;;;;;;;1.70;1.00;;;7.70;99.90;;;;;;5036249;28;20195;-84
2022/11/04 03:29:43;;;;;;;6.10;1.08;;;7.70;99.90;;;;;;5044780;28;20541;-84
2022/11/04 03:32:34;;;;;;;2.40;1.05;;;7.70;99.90;;;;;;5032661;28;20196;-84
2022/11/04 03:35:00;;;;;;;3.67;1.48;;;7.60;99.90;;;;;;5033361;28;20163;-84
2022/11/04 03:37:25;;;;;;;6.77;1.60;;;7.60;99.90;;;;;;5032745;28;20608;-85
2022/11/04 03:39:51;;;;;;;1.90;0.93;;;7.60;99.90;;;;;;5033150;28;20182;-85
2022/11/04 03:42:18;;;;;;;5.97;1.57;;;7.50;99.90;;;;;;5015975;28;20186;-85
2022/11/04 03:44:52;;;;;;;5.57;1.25;;;7.50;99.90;;;;;;5031897;28;20622;-85
2022/11/04 03:47:26;;;;;;;4.65;1.60;;;7.40;99.90;;;;;;5033768;28;20186;-85
2022/11/04 03:50:06;;;;;;;2.95;1.80;;;7.40;99.90;;;;;;5031921;28;20184;-84
2022/11/04 03:52:31;;;;;;;6.22;1.27;;;7.30;99.90;;;;;;5032325;28;20184;-85
2022/11/04 03:54:57;;;;;;;6.13;1.70;;;7.20;99.90;;;;;;5033067;28;20556;-85
2022/11/04 03:57:38;;;;;;;3.30;1.33;;;7.20;99.90;;;;;;5032611;28;20421;-85
2022/11/04 04:00:09;;;;;;;1.88;1.10;;;7.10;99.90;;;;;;5031665;28;20213;-83
2022/11/04 04:02:43;;;;;;;4.85;1.40;;;7.10;99.90;;;;;;5032183;28;20211;-84
2022/11/04 04:05:27;;;;;;;5.32;1.83;;;7.10;99.90;;;;;;5034182;28;20193;-84
2022/11/04 04:08:29;;;;;;;1.73;1.20;;;7.10;99.90;;;;;;5036832;28;20170;-84
2022/11/04 04:11:19;;;;;;;4.60;1.38;;;7.10;99.90;;;;;;4949440;28;20235;-85
2022/11/04 04:13:45;;;;;;;4.43;1.40;;;7.00;99.90;;;;;;5051438;28;20223;-85
2022/11/04 04:16:19;;;;;;;8.30;1.40;;;7.00;99.90;;;;;;5055958;28;20259;-84
2022/11/04 04:18:51;;;;;;;5.03;1.25;;;7.00;99.90;;;;;;5056394;28;20188;-84
2022/11/04 04:21:22;;;;;;;4.13;1.42;;;7.00;99.90;;;;;;5056218;28;20254;-84
2022/11/04 04:29:21;;;;;;;7.00;1.40;;;7.10;99.90;;;;;;5036712;28;20269;-84
2022/11/04 04:31:48;;;;;;;4.90;1.50;;;7.10;99.90;;;;;;5051690;28;20186;-84
2022/11/04 04:34:15;;;;;;;9.68;1.73;;;7.10;99.90;;;;;;5035527;28;20178;-85
2022/11/04 04:36:47;;;;;;;4.72;1.38;;;7.00;99.90;;;;;;5036674;28;20190;-85
2022/11/04 04:44:58;;;;;;;4.10;1.63;;;7.00;99.90;;;;;;5056243;28;20293;-84
2022/11/04 04:47:29;;;;;;;6.30;1.30;;;7.00;99.90;;;;;;5025406;28;20640;-83
2022/11/04 04:49:56;;;;;;;6.35;1.63;;;7.00;99.90;;;;;;5056237;28;20157;-83
2022/11/04 04:52:24;;;;;;;5.65;1.33;;;7.00;99.90;;;;;;5054935;28;20269;-84
2022/11/04 04:54:50;;;;;;;2.70;1.20;;;7.00;99.90;;;;;;5055841;28;20212;-84
2022/11/04 04:57:15;;;;;;;2.53;1.43;;;7.00;99.90;;;;;;5053346;28;20225;-84
2022/11/04 04:59:41;;;;;;;5.93;1.70;;;7.00;99.90;;;;;;5052913;28;20186;-84
2022/11/04 05:02:07;;;;;;;1.97;1.07;;;6.90;99.90;;;;;;5055087;28;20478;-83
2022/11/04 05:04:33;;;;;;;5.00;2.30;;;6.90;99.90;;;;;;5054640;28;20738;-83
2022/11/04 05:06:58;;;;;;;6.43;1.60;;;6.90;99.90;;;;;;5054699;28;20190;-84
2022/11/04 05:09:25;;;;;;;2.38;1.30;;;6.80;99.90;;;;;;5056107;28;20224;-84
2022/11/04 05:11:51;;;;;;;5.37;2.70;;;6.80;99.90;;;;;;5055685;28;20684;-84
2022/11/04 05:14:16;;;;;;;4.93;1.70;;;6.80;99.90;;;;;;5033107;28;20205;-84
2022/11/04 05:16:42;;;;;;;4.07;1.20;;;6.80;99.90;;;;;;5034348;28;20413;-84
2022/11/04 05:19:07;;;;;;;5.67;2.13;;;6.70;99.90;;;;;;5034660;28;20190;-84
2022/11/04 05:21:33;;;;;;;5.73;1.57;;;6.70;99.90;;;;;;5034462;28;20178;-84
2022/11/04 05:23:59;;;;;;;4.00;1.73;;;6.70;99.90;;;;;;5034426;28;20241;-84
2022/11/04 05:26:24;;;;;;;3.53;1.47;;;6.60;99.90;;;;;;5017740;28;20321;-84
2022/11/04 05:28:50;;;;;;;5.03;3.57;;;6.60;99.90;;;;;;5036670;28;20653;-84
2022/11/04 05:31:19;;;;;;;10.63;1.80;;;6.50;99.90;;;;;;5054436;28;20284;-84
2022/11/04 05:33:44;;;;;;;3.78;1.70;;;6.50;99.90;;;;;;5053676;28;20637;-84
2022/11/04 05:36:13;;;;;;;6.27;1.57;;;6.50;99.90;;;;;;5055079;28;20176;-85
2022/11/04 05:38:39;;;;;;;6.38;1.60;;;6.40;99.90;;;;;;5054233;28;20614;-84
2022/11/04 05:41:06;;;;;;;2.22;1.13;;;6.50;99.90;;;;;;5037169;28;20194;-85
2022/11/04 05:43:33;;;;;;;5.28;1.70;;;6.50;99.90;;;;;;5048617;28;20243;-85
2022/11/04 05:46:00;;;;;;;3.10;1.77;;;6.40;99.90;;;;;;5033673;28;20601;-85
2022/11/04 05:48:26;;;;;;;4.30;1.92;;;6.40;99.90;;;;;;5033929;28;20583;-85
2022/11/04 05:50:52;;;;;;;6.70;1.85;;;6.40;99.90;;;;;;5033414;28;20202;-84
2022/11/04 05:53:18;;;;;;;8.17;2.10;;;6.30;99.90;;;;;;5034035;28;20178;-84
2022/11/04 05:55:44;;;;;;;5.03;1.70;;;6.30;99.90;;;;;;5017344;28;20448;-85
2022/11/04 05:58:09;;;;;;;6.53;2.43;;;6.20;99.90;;;;;;5037098;28;20450;-84
2022/11/04 06:00:35;;;;;;;8.77;2.50;;;6.20;99.90;;;;;;5054431;28;20205;-84
2022/11/04 06:03:01;;;;;;;5.83;2.23;;;6.10;99.90;;;;;;5053387;28;20181;-84
2022/11/04 06:05:27;;;;;;;4.77;2.00;;;6.10;99.90;;;;;;5053136;28;20218;-84
2022/11/04 06:07:53;;;;;;;4.05;1.60;;;6.10;99.90;;;;;;5054424;28;20226;-85
2022/11/04 06:10:19;;;;;;;3.03;1.70;;;6.10;99.90;;;;;;5053281;28;20534;-85
2022/11/04 06:12:44;;;;;;;5.30;3.10;;;6.00;99.90;;;;;;5046346;28;20188;-84
2022/11/04 06:15:10;;;;;;;2.57;1.80;;;5.90;99.90;;;;;;5033631;28;20943;-83
2022/11/04 06:17:36;;;;;;;7.20;2.07;;;5.90;99.90;;;;;;5054817;28;20689;-84
2022/11/04 06:20:03;;;;;;;4.65;1.67;;;5.80;99.90;;;;;;5052849;28;21050;-83
2022/11/04 06:22:29;;;;;;;1.98;1.63;;;5.80;99.90;;;;;;5036151;28;20211;-84
2022/11/04 06:24:55;;;;;;;7.80;2.20;;;5.70;99.90;;;;;;5053772;28;20662;-83
2022/11/04 06:27:21;;;;;;;4.72;2.38;;;5.70;99.90;;;;;;5019787;28;20182;-84
2022/11/04 06:29:46;;;;;;;2.70;1.90;;;5.70;99.90;;;;;;5036949;28;20643;-84
2022/11/04 06:32:15;;;;;;;2.60;1.80;;;5.70;99.90;;;;;;5052753;28;20190;-84
2022/11/04 06:34:41;;;;;;;2.63;1.77;;;5.70;99.90;;;;;;5054462;28;20191;-85
2022/11/04 06:37:07;;;;;;;8.10;3.08;;;5.70;99.90;;;;;;5052809;28;20185;-84
2022/11/04 06:39:32;;;;;;;6.00;3.72;;;5.70;99.90;;;;;;5053694;28;20618;-84
2022/11/04 06:41:58;;;;;;;4.63;1.70;;;5.70;99.90;;;;;;5034404;28;20265;-84
2022/11/04 06:44:23;;;;;;;4.70;2.50;;;5.70;99.90;;;;;;5052831;28;20252;-83
2022/11/04 06:46:49;;;;;;;9.17;2.23;;;5.80;99.90;;;;;;5053375;28;20181;-83
2022/11/04 06:49:17;;;;;;;5.40;2.13;;;5.80;99.90;;;;;;5053971;28;20170;-84
2022/11/04 06:51:43;;;;;;;8.20;2.30;;;5.90;99.90;;;;;;5054175;28;20224;-84
2022/11/04 06:54:09;;;;;;;8.93;2.10;;;6.00;99.90;;;;;;5035962;28;20217;-83
2022/11/04 06:56:35;;;;;;;9.65;2.80;;;6.10;99.90;;;;;;5045740;28;20460;-83
2022/11/04 06:59:01;;;;;;;4.83;2.50;;;6.20;99.90;;;;;;5032601;28;20197;-84
2022/11/04 07:01:29;;;;;;;7.07;3.30;;;6.30;99.90;;;;;;5050236;28;20979;-85
2022/11/04 07:03:57;;;;;;;7.43;2.50;;;6.40;99.90;;;;;;5053923;28;20463;-86
2022/11/04 07:06:24;;;;;;;6.85;3.75;;;6.50;99.90;;;;;;5052666;28;20188;-81
2022/11/04 07:08:52;;;;;;;8.70;3.90;;;6.60;99.90;;;;;;5049710;28;20204;-82
2022/11/04 07:11:20;;;;;;;9.75;3.05;;;6.60;99.90;;;;;;5034058;28;20185;-84
2022/11/04 07:13:47;;;;;;;4.55;3.10;;;6.70;99.90;;;;;;5040354;28;20216;-84
2022/11/04 07:16:14;;;;;;;10.35;3.80;;;6.80;99.90;;;;;;5015434;28;20498;-83
2022/11/04 07:18:40;;;;;;;11.30;3.97;;;6.90;99.90;;;;;;5036806;28;20190;-86
2022/11/04 07:21:06;;;;;;;5.80;3.17;;;7.00;99.90;;;;;;5032322;28;20185;-84
2022/11/04 07:23:31;;;;;;;9.50;3.70;;;7.10;99.90;;;;;;5034252;28;20217;-85
2022/11/04 07:26:02;;;;;;;11.50;3.73;;;7.20;99.90;;;;;;5033648;28;20209;-84
2022/11/04 07:28:28;;;;;;;9.07;3.40;;;7.30;99.90;;;;;;5032526;28;20304;-85
2022/11/04 07:30:58;;;;;;;10.40;3.30;;;7.40;99.90;;;;;;5033939;28;20276;-85
2022/11/04 07:33:25;;;;;;;7.90;3.95;;;7.50;99.90;;;;;;5032078;28;20221;-84
2022/11/04 07:35:52;;;;;;;12.90;2.90;;;7.50;99.90;;;;;;5016123;28;20185;-84
2022/11/04 07:38:18;;;;;;;8.13;3.72;;;7.70;99.90;;;;;;5033435;28;20232;-84
2022/11/04 07:40:43;;;;;;;6.93;3.40;;;7.70;99.90;;;;;;5035401;28;20575;-84
2022/11/04 07:43:09;;;;;;;8.47;4.20;;;7.80;99.90;;;;;;5003010;28;20197;-84
2022/11/04 07:45:34;;;;;;;8.43;2.83;;;7.90;99.90;;;;;;5019875;28;20224;-84
2022/11/04 07:48:00;;;;;;;8.00;3.20;;;8.00;99.90;;;;;;5035509;28;20181;-85
2022/11/04 07:50:25;;;;;;;7.70;2.77;;;8.00;99.90;;;;;;5019870;28;20182;-84
2022/11/04 07:52:51;;;;;;;7.87;3.10;;;8.10;99.90;;;;;;5003042;28;20559;-84
2022/11/04 07:55:17;;;;;;;6.13;2.37;;;8.20;99.90;;;;;;5036794;28;20193;-84
2022/11/04 07:57:45;;;;;;;13.23;2.17;;;8.30;99.90;;;;;;5037248;28;20677;-84
2022/11/04 08:00:11;;;;;;;5.88;2.60;;;8.40;99.90;;;;;;5053169;28;20189;-84
2022/11/04 08:02:36;;;;;;;6.90;2.08;;;8.40;99.90;;;;;;5055239;28;20577;-84
2022/11/04 08:05:05;;;;;;;5.80;1.80;;;8.50;99.90;;;;;;5055295;28;20267;-84
2022/11/04 08:07:31;;;;;;;10.50;2.22;;;8.50;99.90;;;;;;5023169;28;20548;-84
2022/11/04 08:09:56;;;;;;;8.50;2.07;;;8.60;99.90;;;;;;5054547;28;20227;-84
2022/11/04 08:12:23;;;;;;;4.80;2.17;;;8.60;99.90;;;;;;5049380;28;20492;-83
2022/11/04 08:14:49;;;;;;;4.65;2.40;;;8.70;99.90;;;;;;5036847;28;20646;-84
2022/11/04 08:17:15;;;;;;;12.00;2.05;;;8.70;99.90;;;;;;5032818;28;20367;-84
2022/11/04 08:19:40;;;;;;;5.57;2.23;;;8.80;99.90;;;;;;5054534;28;20189;-84
2022/11/04 08:22:07;;;;;;;3.53;1.83;;;8.90;99.90;;;;;;5033465;28;20217;-84
2022/11/04 08:24:33;;;;;;;7.18;2.53;;;8.90;99.90;;;;;;5012887;28;20634;-84
2022/11/04 08:26:58;;;;;;;4.60;1.80;;;8.90;99.90;;;;;;5037034;28;20190;-83
2022/11/04 08:29:24;;;;;;;5.47;2.03;;;9.00;99.90;;;;;;5056063;28;20778;-82
2022/11/04 08:31:49;;;;;;;3.93;1.97;;;9.00;99.90;;;;;;5038118;28;20181;-83
2022/11/04 08:34:17;;;;;;;3.90;1.83;;;9.10;99.90;;;;;;5055184;28;20185;-82
2022/11/04 08:36:44;;;;;;;4.70;2.47;;;9.10;99.90;;;;;;5016257;28;20235;-83
2022/11/04 08:39:11;;;;;;;3.85;1.85;;;9.10;99.90;;;;;;5032241;28;20272;-83
2022/11/04 08:41:39;;;;;;;4.43;1.80;;;9.20;99.90;;;;;;5048976;28;20221;-82
2022/11/04 08:44:06;;;;;;;6.20;2.22;;;9.20;99.90;;;;;;5032714;28;20278;-82
2022/11/04 08:46:37;;;;;;;4.68;2.58;;;9.30;99.90;;;;;;5050244;28;20185;-84
2022/11/04 08:49:04;;;;;;;5.05;2.67;;;9.40;99.90;;;;;;5037700;28;20552;-81
2022/11/04 08:51:31;;;;;;;4.78;2.30;;;9.40;99.90;;;;;;5056033;28;20573;-81
2022/11/04 08:53:57;;;;;;;4.15;2.30;;;9.50;99.90;;;;;;5055618;28;20189;-83
2022/11/04 08:56:28;;;;;;;6.95;2.90;;;9.50;99.90;;;;;;5055713;28;20177;-83
2022/11/04 08:58:54;;;;;;;10.80;2.30;;;9.60;99.90;;;;;;5054624;28;20181;-83
2022/11/04 09:01:20;;;;;;;4.25;2.35;;;9.50;99.90;;;;;;5036768;28;20233;-83
2022/11/04 09:03:46;;;;;;;2.60;2.28;;;9.60;99.90;;;;;;5055634;28;20205;-84
2022/11/04 09:06:18;;;;;;;4.28;2.50;;;9.60;99.90;;;;;;5037204;28;20181;-84
2022/11/04 09:08:44;;;;;;;8.07;2.00;;;9.60;99.90;;;;;;5055910;28;20162;-84
2022/11/04 09:11:12;;;;;;;7.17;2.60;;;9.70;99.90;;;;;;5054361;28;20173;-83
2022/11/04 09:13:38;;;;;;;5.03;2.10;;;9.70;99.90;;;;;;5054307;28;20423;-83
2022/11/04 09:16:04;;;;;;;7.73;2.17;;;9.90;99.90;;;;;;5055940;28;20182;-86
2022/11/04 09:18:30;;;;;;;4.03;1.90;;;10.00;99.90;;;;;;5051634;28;20467;-86
2022/11/04 09:21:02;;;;;;;3.80;1.97;;;10.10;99.90;;;;;;5054385;28;20221;-85
2022/11/04 09:23:28;;;;;;;6.75;2.17;;;10.10;99.90;;;;;;5054809;28;20169;-86
2022/11/04 09:25:56;;;;;;;5.80;2.03;;;10.20;99.90;;;;;;5054843;28;20652;-86
2022/11/04 09:28:21;;;;;;;6.03;2.05;;;10.40;99.90;;;;;;5037927;28;20182;-86
2022/11/04 09:30:47;;;;;;;5.73;2.10;;;10.40;99.90;;;;;;5055479;28;20247;-85
2022/11/04 09:33:13;;;;;;;2.73;1.90;;;10.50;99.90;;;;;;5055066;28;20174;-85
2022/11/04 09:35:38;;;;;;;5.30;2.37;;;10.60;99.90;;;;;;5034071;28;20999;-85
2022/11/04 09:38:04;;;;;;;4.17;2.33;;;10.90;99.90;;;;;;5044319;28;20205;-84
2022/11/04 09:40:34;;;;;;;7.70;1.87;;;11.20;99.90;;;;;;5047015;28;20185;-84
2022/11/04 09:43:09;;;;;;;3.53;1.80;;;11.30;99.90;;;;;;5055509;28;20165;-85
2022/11/04 09:45:40;;;;;;;16.00;2.90;;;11.20;99.90;;;;;;5053736;28;21101;-85
2022/11/04 09:48:11;;;;;;;5.13;1.47;;;11.30;99.90;;;;;;5054529;28;20751;-85
2022/11/04 09:50:50;;;;;;;5.30;2.30;;;11.30;99.90;;;;;;5055049;28;20396;-85
2022/11/04 09:53:40;;;;;;;3.50;1.50;;;11.40;99.90;;;;;;5054184;28;20402;-85
2022/11/04 09:56:15;;;;;;;6.37;2.07;;;11.50;99.90;;;;;;5043008;28;20932;-86
2022/11/04 09:58:41;;;;;;;6.70;1.93;;;11.60;99.90;;;;;;5037269;28;20401;-85
2022/11/04 10:01:42;;;;;;;6.87;1.90;;;12.00;99.90;;;;;;5034033;28;20465;-85
2022/11/04 10:04:25;;;;;;;6.40;2.13;;;12.50;99.90;;;;;;5021003;28;20469;-85
2022/11/04 10:07:19;;;;;;;5.17;1.60;;;13.00;99.90;;;;;;5033116;28;20399;-86
2022/11/04 10:10:05;;;;;;;2.77;1.47;;;12.90;99.90;;;;;;5034696;28;20416;-86
2022/11/04 10:12:55;;;;;;;6.07;1.77;;;12.90;99.90;;;;;;5033604;28;20481;-86
2022/11/04 10:15:35;;;;;;;4.43;1.40;;;13.00;99.90;;;;;;5033178;28;20491;-86
2022/11/04 10:18:14;;;;;;;5.10;1.70;;;12.90;99.90;;;;;;5033761;28;20420;-93
2022/11/04 10:20:49;;;;;;;5.33;1.50;;;12.70;99.90;;;;;;5037529;28;20405;-93
2022/11/04 10:23:25;;;;;;;4.87;1.90;;;12.50;99.90;;;;;;5037337;28;20387;-92
2022/11/04 10:26:02;;;;;;;5.30;1.80;;;12.40;99.90;;;;;;5036275;28;20781;-86
2022/11/04 10:28:42;;;;;;;3.27;1.50;;;12.20;99.90;;;;;;5032998;28;20421;-86
2022/11/04 10:31:14;;;;;;;4.23;1.53;;;12.30;99.90;;;;;;5032738;28;20407;-86
2022/11/04 10:33:50;;;;;;;4.13;2.30;;;12.10;99.90;;;;;;5034630;28;20421;-86
2022/11/04 10:36:16;;;;;;;6.23;1.90;;;12.10;99.90;;;;;;5032999;28;20811;-87
2022/11/04 10:38:45;;;;;;;4.73;1.73;;;12.10;99.90;;;;;;5034884;28;20462;-86
2022/11/04 10:41:22;;;;;;;7.17;2.30;;;11.90;99.90;;;;;;5038078;28;20428;-87
2022/11/04 10:43:54;;;;;;;5.20;3.00;;;11.90;99.90;;;;;;5041116;28;20476;-86
2022/11/04 10:46:47;;;;;;;6.47;2.23;;;12.00;99.90;;;;;;5034535;28;20400;-87
2022/11/04 10:49:31;;;;;;;4.33;1.60;;;12.10;99.90;;;;;;5045230;28;20766;-87
2022/11/04 10:51:57;;;;;;;2.10;1.50;;;12.10;99.90;;;;;;5044363;28;20878;-87
2022/11/04 10:54:25;;;;;;;5.67;1.70;;;12.10;99.90;;;;;;5036822;28;20435;-87
2022/11/04 10:56:53;;;;;;;8.13;1.87;;;12.30;99.90;;;;;;5034299;28;20174;-87
2022/11/04 10:59:41;;;;;;;3.57;1.70;;;12.50;99.90;;;;;;5033768;28;20404;-87
2022/11/04 11:02:07;;;;;;;5.33;2.17;;;13.00;99.90;;;;;;5034449;28;20476;-88
2022/11/04 11:04:37;;;;;;;5.90;2.00;;;13.60;99.90;;;;;;5033182;28;20534;-88
2022/11/04 11:07:08;;;;;;;4.33;2.10;;;13.60;99.90;;;;;;5033886;28;20184;-87
2022/11/04 11:09:52;;;;;;;5.47;1.87;;;13.80;99.90;;;;;;5033978;28;20401;-87
2022/11/04 11:12:29;;;;;;;4.00;1.70;;;13.80;99.90;;;;;;5032369;28;20436;-87
2022/11/04 11:14:55;;;;;;;7.60;1.83;;;13.90;99.90;;;;;;5032076;28;20406;-87
2022/11/04 11:17:41;;;;;;;2.03;1.33;;;13.90;99.90;;;;;;5028777;28;20540;-87
2022/11/04 11:20:20;;;;;;;5.00;1.40;;;13.80;99.90;;;;;;5012623;28;20755;-87
2022/11/04 11:22:50;;;;;;;2.20;1.30;;;13.50;99.90;;;;;;5028106;28;20413;-87
2022/11/04 11:25:29;;;;;;;3.40;1.17;;;13.30;99.90;;;;;;5028310;28;20465;-88
2022/11/04 11:28:21;;;;;;;4.23;1.50;;;13.30;99.90;;;;;;5010081;28;20417;-88
2022/11/04 11:30:47;;;;;;;3.47;1.40;;;13.90;99.90;;;;;;5032186;28;20772;-87
2022/11/04 11:33:33;;;;;;;2.90;1.47;;;14.40;99.90;;;;;;5033130;28;20424;-88
2022/11/04 11:36:23;;;;;;;2.90;1.00;;;14.30;99.90;;;;;;5033676;28;20197;-87
2022/11/04 11:39:15;;;;;;;2.20;1.00;;;14.20;99.90;;;;;;5031160;28;20512;-87
2022/11/04 11:41:53;;;;;;;2.50;1.37;;;14.10;99.90;;;;;;5032249;28;20417;-87
2022/11/04 11:44:39;;;;;;;4.70;1.70;;;14.00;99.90;;;;;;5033364;28;20491;-87
2022/11/04 11:47:06;;;;;;;4.03;1.47;;;13.90;99.90;;;;;;5033473;28;20459;-87
2022/11/04 11:49:36;;;;;;;2.90;1.13;;;14.00;99.90;;;;;;5031916;28;20431;-87
2022/11/04 11:52:21;;;;;;;4.93;1.50;;;14.20;99.90;;;;;;5032336;28;20471;-86
2022/11/04 11:54:49;;;;;;;2.53;0.80;;;14.50;99.90;;;;;;5033415;28;20409;-88
2022/11/04 11:57:38;;;;;;;2.80;0.90;;;14.30;99.90;;;;;;5033405;28;20409;-88
2022/11/04 12:00:09;;;;;;;2.33;0.80;;;14.30;99.90;;;;;;5032572;28;20905;-88
2022/11/04 12:02:49;;;;;;;2.57;0.90;;;14.40;99.90;;;;;;5034100;28;20461;-88
2022/11/04 12:05:18;;;;;;;1.70;0.80;;;14.60;99.90;;;;;;5032080;28;20903;-88
2022/11/04 12:07:44;;;;;;;4.70;0.90;;;14.30;99.90;;;;;;5032154;28;20403;-88
2022/11/04 12:10:51;;;;;;;4.23;1.07;;;14.10;99.90;;;;;;5032701;28;20439;-87
2022/11/04 12:13:27;;;;;;;2.33;0.90;;;14.10;99.90;;;;;;5032072;28;20193;-88
2022/11/04 12:16:15;;;;;;;2.63;0.97;;;14.30;99.90;;;;;;5032636;28;20410;-88
2022/11/04 12:19:05;;;;;;;5.30;1.20;;;14.80;99.90;;;;;;5033614;28;20751;-88
2022/11/04 12:21:52;;;;;;;2.33;1.07;;;14.80;99.90;;;;;;5035411;28;20802;-89
2022/11/04 12:24:46;;;;;;;3.50;1.07;;;14.80;99.90;;;;;;5032935;28;20450;-88
2022/11/04 12:27:38;;;;;;;3.80;1.10;;;14.80;99.90;;;;;;5034873;28;20436;-87
2022/11/04 12:30:11;;;;;;;6.47;1.13;;;14.90;99.90;;;;;;5041228;28;20433;-88
2022/11/04 12:32:43;;;;;;;3.80;1.20;;;14.60;99.90;;;;;;5048915;28;20428;-86
2022/11/04 12:35:30;;;;;;;3.10;0.90;;;14.70;99.90;;;;;;5049757;28;20413;-87
2022/11/04 12:38:32;;;;;;;3.67;1.00;;;14.70;99.90;;;;;;5053013;28;20417;-89
2022/11/04 12:41:03;;;;;;;3.30;1.10;;;14.90;99.90;;;;;;5040723;28;20498;-88
2022/11/04 12:44:07;;;;;;;2.67;1.20;;;15.20;99.90;;;;;;5037535;28;20928;-87
2022/11/04 12:46:57;;;;;;;2.77;1.07;;;15.10;99.90;;;;;;5023856;28;20427;-87
2022/11/04 12:49:46;;;;;;;1.30;0.70;;;15.00;99.90;;;;;;5040954;28;20423;-87
2022/11/04 12:52:47;;;;;;;4.97;1.10;;;14.90;99.90;;;;;;5043833;28;20426;-88
2022/11/04 12:55:34;;;;;;;1.60;1.00;;;14.80;99.90;;;;;;5023159;28;20407;-87
2022/11/04 12:58:18;;;;;;;2.73;1.30;;;14.80;99.90;;;;;;5048434;28;20428;-87
2022/11/04 13:00:49;;;;;;;4.87;1.70;;;14.80;99.90;;;;;;5047578;28;20487;-87
2022/11/04 13:03:17;;;;;;;3.20;1.40;;;14.70;99.90;;;;;;5047990;28;20424;-86
2022/11/04 13:05:49;;;;;;;5.73;1.03;;;14.80;99.90;;;;;;5043102;28;20538;-86
2022/11/04 13:08:20;;;;;;;3.50;1.53;;;14.70;99.90;;;;;;5034914;28;20421;-87
2022/11/04 13:10:54;;;;;;;3.93;1.17;;;14.70;99.90;;;;;;5036088;28;20389;-87
2022/11/04 13:13:28;;;;;;;3.50;1.40;;;14.60;99.90;;;;;;5034439;28;20447;-86
2022/11/04 13:16:00;;;;;;;6.37;1.83;;;14.50;99.90;;;;;;5035498;28;20857;-87
2022/11/04 13:18:31;;;;;;;7.50;1.60;;;14.30;99.90;;;;;;5035616;28;20466;-86
2022/11/04 13:21:08;;;;;;;4.10;1.30;;;14.10;99.90;;;;;;5034523;28;20815;-86
2022/11/04 13:23:40;;;;;;;4.60;1.23;;;14.00;99.90;;;;;;5040868;28;20400;-86
2022/11/04 13:26:11;;;;;;;4.23;1.43;;;13.90;99.90;;;;;;5038005;28;20421;-86
2022/11/04 13:28:40;;;;;;;3.90;1.57;;;13.80;99.90;;;;;;5040158;28;20397;-87
2022/11/04 13:31:13;;;;;;;5.30;1.40;;;13.80;99.90;;;;;;5040088;28;20436;-87
2022/11/04 13:34:04;;;;;;;2.20;1.10;;;13.80;99.90;;;;;;5036133;28;20429;-87
2022/11/04 13:36:39;;;;;;;4.47;1.43;;;13.70;99.90;;;;;;5035254;28;20429;-87
2022/11/04 13:39:19;;;;;;;6.40;1.47;;;13.60;99.90;;;;;;5034781;28;20435;-87
2022/11/04 13:42:03;;;;;;;4.27;1.47;;;13.50;99.90;;;;;;5036154;28;20698;-87
2022/11/04 13:44:36;;;;;;;4.00;1.20;;;13.50;99.90;;;;;;5033862;28;20468;-86
2022/11/04 13:47:05;;;;;;;13.23;2.07;;;13.40;99.90;;;;;;5034044;28;20421;-87
2022/11/04 13:49:33;;;;;;;7.87;1.57;;;13.40;99.90;;;;;;5035046;28;20384;-87